createdAt,value
2023-03-21T00:00:43.999Z,61.14
2023-03-21T00:03:12.211Z,61.00
2023-03-21T00:05:45.851Z,60.67
2023-03-21T00:08:13.642Z,60.77
2023-03-21T00:10:43.649Z,60.97
2023-03-21T00:13:13.478Z,60.58
2023-03-21T00:16:04.803Z,60.61
2023-03-21T00:18:42.327Z,60.80
2023-03-21T00:21:39.556Z,60.52
2023-03-21T00:24:04.184Z,60.75
2023-03-21T00:26:32.428Z,60.47
2023-03-21T00:29:00.164Z,60.69
2023-03-21T00:31:27.960Z,61.02
2023-03-21T00:33:55.748Z,60.82
2023-03-21T00:36:26.253Z,60.81
2023-03-21T00:38:54.775Z,60.88
2023-03-21T00:41:39.253Z,61.52
2023-03-21T00:44:11.844Z,60.98
2023-03-21T00:46:47.235Z,61.38
2023-03-21T00:49:21.984Z,61.71
2023-03-21T00:51:51.520Z,61.08
2023-03-21T00:54:19.740Z,61.32
2023-03-21T00:56:47.502Z,61.30
2023-03-21T00:59:15.545Z,61.13
2023-03-21T01:01:46.938Z,61.53
2023-03-21T01:04:17.130Z,61.49
2023-03-21T01:06:45.073Z,61.71
2023-03-21T01:09:24.687Z,61.63
2023-03-21T01:11:52.860Z,62.14
2023-03-21T01:14:23.850Z,61.67
2023-03-21T01:16:53.416Z,61.60
2023-03-21T01:19:35.199Z,62.17
2023-03-21T01:22:10.877Z,61.96
2023-03-21T01:24:46.835Z,62.20
2023-03-21T01:27:20.277Z,61.96
2023-03-21T01:29:49.829Z,61.98
2023-03-21T01:32:17.692Z,61.81
2023-03-21T01:34:45.665Z,61.87
2023-03-21T01:37:14.584Z,62.00
2023-03-21T01:39:47.764Z,61.75
2023-03-21T01:42:15.706Z,61.96
2023-03-21T01:45:01.904Z,62.08
2023-03-21T01:47:49.826Z,62.34
2023-03-21T01:50:27.195Z,62.20
2023-03-21T01:53:24.436Z,62.93
2023-03-21T01:55:52.351Z,62.35
2023-03-21T01:58:43.796Z,62.47
2023-03-21T02:01:50.882Z,62.52
2023-03-21T02:04:28.199Z,63.13
2023-03-21T02:07:18.999Z,62.86
2023-03-21T02:09:52.777Z,63.18
2023-03-21T02:12:23.710Z,62.93
2023-03-21T02:14:52.426Z,62.81
2023-03-21T02:17:58.462Z,63.10
2023-03-21T02:21:19.441Z,63.17
2023-03-21T02:24:08.070Z,63.33
2023-03-21T02:26:45.003Z,63.18
2023-03-21T02:29:31.198Z,63.23
2023-03-21T02:32:16.446Z,63.77
2023-03-21T02:35:09.466Z,63.79
2023-03-21T02:37:55.230Z,64.21
2023-03-21T02:40:52.882Z,63.74
2023-03-21T02:43:52.764Z,64.40
2023-03-21T02:46:42.880Z,64.36
2023-03-21T02:49:22.164Z,64.23
2023-03-21T02:51:51.126Z,64.07
2023-03-21T02:54:34.970Z,64.27
2023-03-21T02:57:10.605Z,63.78
2023-03-21T02:59:51.645Z,63.95
2023-03-21T03:02:27.789Z,63.70
2023-03-21T03:04:55.797Z,63.69
2023-03-21T03:08:08.125Z,64.08
2023-03-21T03:10:56.724Z,63.76
2023-03-21T03:13:42.493Z,63.53
2023-03-21T03:16:22.330Z,63.84
2023-03-21T03:18:54.521Z,63.95
2023-03-21T03:21:40.087Z,64.04
2023-03-21T03:24:17.175Z,63.67
2023-03-21T03:27:04.179Z,63.76
2023-03-21T03:29:35.242Z,63.93
2023-03-21T03:32:18.673Z,63.89
2023-03-21T03:34:56.297Z,64.05
2023-03-21T03:37:33.001Z,63.89
2023-03-21T03:40:06.474Z,64.02
2023-03-21T03:42:37.541Z,64.00
2023-03-21T03:45:16.601Z,64.40
2023-03-21T03:47:57.262Z,63.69
2023-03-21T03:50:36.914Z,64.33
2023-03-21T03:53:20.573Z,63.97
2023-03-21T03:55:51.927Z,63.95
2023-03-21T03:58:24.780Z,63.68
2023-03-21T04:00:57.349Z,63.76
2023-03-21T04:03:25.304Z,63.78
2023-03-21T04:05:54.246Z,63.51
2023-03-21T04:08:23.507Z,63.30
2023-03-21T04:10:55.071Z,63.24
2023-03-21T04:13:23.716Z,63.56
2023-03-21T04:16:08.879Z,63.27
2023-03-21T04:18:38.532Z,63.11
2023-03-21T04:21:12.999Z,62.83
2023-03-21T04:23:42.230Z,62.53
2023-03-21T04:26:10.113Z,62.87
2023-03-21T04:28:43.877Z,63.37
2023-03-21T04:31:31.553Z,62.30
2023-03-21T04:34:10.204Z,62.31
2023-03-21T04:36:46.825Z,62.45
2023-03-21T04:39:18.774Z,62.54
2023-03-21T04:41:50.076Z,62.09
2023-03-21T04:44:18.555Z,61.91
2023-03-21T04:46:47.356Z,61.71
2023-03-21T04:49:15.485Z,61.97
2023-03-21T04:51:47.724Z,61.92
2023-03-21T04:54:21.180Z,61.60
2023-03-21T04:56:49.324Z,61.53
2023-03-21T04:59:17.353Z,61.07
2023-03-21T05:01:45.612Z,61.25
2023-03-21T05:04:14.791Z,60.64
2023-03-21T05:06:43.987Z,60.75
2023-03-21T05:09:12.880Z,60.63
2023-03-21T05:11:41.370Z,60.51
2023-03-21T05:14:12.659Z,60.87
2023-03-21T05:16:48.836Z,60.79
2023-03-21T05:19:19.220Z,60.82
2023-03-21T05:21:48.948Z,60.63
2023-03-21T05:24:22.458Z,60.43
2023-03-21T05:26:52.411Z,60.31
2023-03-21T05:29:23.679Z,60.06
2023-03-21T05:31:59.852Z,60.45
2023-03-21T05:34:28.366Z,59.57
2023-03-21T05:36:56.409Z,59.78
2023-03-21T05:39:27.167Z,58.85
2023-03-21T05:42:09.879Z,58.65
2023-03-21T05:44:40.529Z,58.53
2023-03-21T05:47:10.320Z,57.90
2023-03-21T05:49:43.710Z,57.34
2023-03-21T05:52:12.272Z,56.96
2023-03-21T05:54:40.056Z,55.71
2023-03-21T05:57:08.663Z,56.09
2023-03-21T05:59:52.999Z,55.40
2023-03-21T06:02:21.083Z,54.83
2023-03-21T06:04:50.092Z,54.84
2023-03-21T06:07:21.836Z,53.98
2023-03-21T06:09:51.099Z,53.96
2023-03-21T06:12:18.943Z,53.31
2023-03-21T06:15:12.345Z,53.60
2023-03-21T06:17:56.970Z,53.61
2023-03-21T06:20:24.785Z,52.91
2023-03-21T06:22:57.060Z,52.99
2023-03-21T06:25:24.873Z,52.98
2023-03-21T06:27:52.740Z,53.00
2023-03-21T06:30:21.645Z,52.63
2023-03-21T06:33:15.853Z,52.34
2023-03-21T06:35:45.101Z,52.92
2023-03-21T06:38:12.902Z,52.96
2023-03-21T06:40:41.001Z,53.26
2023-03-21T06:43:08.806Z,53.39
2023-03-21T06:45:36.940Z,53.66
2023-03-21T06:48:07.474Z,53.49
2023-03-21T06:50:51.464Z,54.06
2023-03-21T06:53:24.444Z,53.96
2023-03-21T06:56:13.661Z,53.68
2023-03-21T06:58:42.841Z,53.77
2023-03-21T07:01:18.920Z,52.90
2023-03-21T07:03:59.057Z,52.93
2023-03-21T07:06:28.728Z,52.39
2023-03-21T07:08:57.099Z,51.31
2023-03-21T07:11:26.135Z,51.46
2023-03-21T07:13:54.533Z,50.74
2023-03-21T07:16:25.160Z,50.94
2023-03-21T07:18:53.179Z,50.25
2023-03-21T07:21:21.048Z,50.35
2023-03-21T07:23:50.401Z,49.59
2023-03-21T07:26:18.612Z,49.29
2023-03-21T07:28:46.809Z,49.30
2023-03-21T07:31:16.461Z,49.28
2023-03-21T07:33:44.222Z,48.79
2023-03-21T07:36:16.436Z,47.54
2023-03-21T07:38:46.498Z,47.26
2023-03-21T07:43:44.431Z,48.00
2023-03-21T07:46:31.208Z,48.29
2023-03-21T07:49:01.198Z,47.92
2023-03-21T07:51:30.834Z,47.91
2023-03-21T07:53:58.630Z,48.98
2023-03-21T07:56:26.542Z,49.52
2023-03-21T07:58:54.427Z,49.52
2023-03-21T08:01:22.212Z,50.23
2023-03-21T08:03:51.497Z,50.29
2023-03-21T08:06:20.831Z,49.92
2023-03-21T08:08:48.713Z,49.70
2023-03-21T08:11:16.545Z,49.96
2023-03-21T08:13:44.429Z,50.11
2023-03-21T08:16:12.078Z,49.73
2023-03-21T08:18:39.754Z,50.43
2023-03-21T08:21:09.618Z,50.18
2023-03-21T08:23:37.455Z,50.62
2023-03-21T08:26:05.436Z,50.77
2023-03-21T08:28:33.178Z,51.02
2023-03-21T08:31:01.095Z,51.01
2023-03-21T08:33:29.103Z,51.06
2023-03-21T08:36:00.250Z,51.05
2023-03-21T08:38:34.755Z,51.03
2023-03-21T08:41:02.793Z,51.71
2023-03-21T08:43:31.058Z,51.88
2023-03-21T08:45:59.192Z,52.33
2023-03-21T08:48:27.094Z,52.60
2023-03-21T08:50:54.952Z,52.79
2023-03-21T08:53:22.660Z,53.56
2023-03-21T08:55:50.540Z,53.82
2023-03-21T08:58:18.384Z,53.74
2023-03-21T09:00:46.379Z,53.80
2023-03-21T09:03:14.214Z,53.94
2023-03-21T09:05:41.988Z,54.53
2023-03-21T09:08:09.711Z,53.87
2023-03-21T09:10:37.614Z,53.85
2023-03-21T09:13:05.527Z,53.43
2023-03-21T09:15:33.459Z,53.58
2023-03-21T09:18:13.185Z,53.47
2023-03-21T09:20:43.267Z,53.81
2023-03-21T09:23:12.212Z,53.30
2023-03-21T09:25:41.491Z,53.45
2023-03-21T09:28:09.871Z,53.81
2023-03-21T09:30:37.906Z,54.12
2023-03-21T09:33:19.431Z,55.11
2023-03-21T09:35:47.358Z,55.38
2023-03-21T09:38:15.334Z,54.81
2023-03-21T09:40:55.326Z,54.74
2023-03-21T09:43:35.984Z,55.06
2023-03-21T09:46:22.259Z,55.04
2023-03-21T09:49:04.839Z,54.93
2023-03-21T09:51:46.300Z,55.26
2023-03-21T09:54:19.221Z,55.14
2023-03-21T09:56:47.891Z,54.50
2023-03-21T09:59:26.379Z,54.74
2023-03-21T10:01:55.579Z,54.98
2023-03-21T10:04:24.814Z,55.19
2023-03-21T10:06:58.664Z,55.52
2023-03-21T10:09:27.387Z,55.48
2023-03-21T10:12:15.619Z,55.32
2023-03-21T10:14:49.515Z,55.04
2023-03-21T10:17:45.299Z,55.00
2023-03-21T10:20:24.800Z,55.23
2023-03-21T10:22:55.015Z,55.72
2023-03-21T10:25:28.972Z,55.54
2023-03-21T10:27:56.661Z,55.18
2023-03-21T10:30:35.300Z,55.15
2023-03-21T10:33:07.363Z,53.48
2023-03-21T10:35:37.575Z,53.24
2023-03-21T10:38:06.728Z,53.39
2023-03-21T10:40:35.510Z,53.03
2023-03-21T10:43:26.102Z,52.79
2023-03-21T10:45:57.163Z,53.22
2023-03-21T10:48:25.837Z,53.34
2023-03-21T10:50:55.378Z,53.36
2023-03-21T10:53:35.831Z,53.01
2023-03-21T10:56:07.855Z,53.37
2023-03-21T10:58:42.926Z,53.04
2023-03-21T11:01:15.236Z,52.37
2023-03-21T11:03:44.822Z,51.23
2023-03-21T11:06:27.935Z,51.23
2023-03-21T11:09:00.792Z,51.72
2023-03-21T11:11:40.680Z,51.53
2023-03-21T11:14:24.253Z,51.82
2023-03-21T11:16:52.249Z,51.33
2023-03-21T11:19:28.926Z,51.43
2023-03-21T11:22:04.638Z,51.53
2023-03-21T11:24:33.044Z,51.82
2023-03-21T11:27:01.831Z,52.13
2023-03-21T11:29:34.896Z,51.59
2023-03-21T11:32:10.340Z,51.46
2023-03-21T11:34:47.755Z,51.25
2023-03-21T11:37:38.857Z,51.90
2023-03-21T11:40:23.327Z,52.02
2023-03-21T11:43:17.094Z,51.69
2023-03-21T11:45:58.786Z,52.25
2023-03-21T11:48:27.231Z,52.46
2023-03-21T11:51:03.445Z,52.23
2023-03-21T11:53:41.958Z,52.15
2023-03-21T11:56:38.340Z,52.60
2023-03-21T11:59:24.960Z,51.93
2023-03-21T12:02:01.833Z,52.29
2023-03-21T12:04:35.326Z,51.66
2023-03-21T12:07:16.428Z,51.67
2023-03-21T12:10:08.307Z,51.94
2023-03-21T12:12:51.146Z,51.96
2023-03-21T12:15:21.807Z,51.96
2023-03-21T12:17:55.738Z,51.47
2023-03-21T12:20:36.565Z,51.05
2023-03-21T12:23:13.073Z,50.53
2023-03-21T12:26:00.934Z,50.62
2023-03-21T12:28:40.655Z,50.40
2023-03-21T12:31:25.444Z,50.76
2023-03-21T12:34:12.007Z,50.93
2023-03-21T12:37:01.835Z,50.92
2023-03-21T12:39:31.925Z,50.40
2023-03-21T12:42:19.893Z,50.42
2023-03-21T12:45:11.540Z,49.73
2023-03-21T12:47:45.982Z,49.60
2023-03-21T12:50:33.573Z,48.93
2023-03-21T12:53:15.099Z,48.64
2023-03-21T12:55:43.044Z,49.70
2023-03-21T12:58:18.982Z,48.61
2023-03-21T13:01:03.334Z,48.97
2023-03-21T13:03:43.940Z,48.81
2023-03-21T13:06:15.856Z,49.09
2023-03-21T13:09:01.043Z,49.24
2023-03-21T13:11:31.106Z,49.17
2023-03-21T13:14:04.916Z,48.77
2023-03-21T13:16:38.726Z,48.91
2023-03-21T13:19:09.556Z,49.19
2023-03-21T13:21:59.040Z,49.24
2023-03-21T13:24:27.334Z,49.01
2023-03-21T13:27:07.215Z,48.40
2023-03-21T13:29:47.889Z,48.44
2023-03-21T13:32:31.985Z,48.26
2023-03-21T13:35:02.093Z,48.39
2023-03-21T13:37:34.975Z,47.39
2023-03-21T13:40:10.951Z,47.82
2023-03-21T13:42:46.234Z,46.97
2023-03-21T13:45:28.362Z,46.62
2023-03-21T13:48:07.529Z,47.50
2023-03-21T13:50:54.830Z,47.47
2023-03-21T13:53:23.586Z,46.52
2023-03-21T13:56:22.236Z,46.32
2023-03-21T13:58:54.297Z,46.83
2023-03-21T14:01:31.623Z,46.00
2023-03-21T14:04:26.498Z,46.50
2023-03-21T14:07:04.648Z,46.66
2023-03-21T14:09:47.369Z,45.56
2023-03-21T14:12:17.661Z,46.12
2023-03-21T14:15:27.836Z,45.74
2023-03-21T14:17:56.875Z,45.37
2023-03-21T14:20:31.851Z,45.96
2023-03-21T14:23:00.100Z,45.54
2023-03-21T14:25:40.743Z,44.97
2023-03-21T14:28:25.307Z,44.06
2023-03-21T14:30:55.590Z,45.03
2023-03-21T14:33:36.519Z,44.20
2023-03-21T14:36:09.032Z,44.20
2023-03-21T14:38:39.194Z,44.40
2023-03-21T14:41:26.286Z,43.20
2023-03-21T14:44:09.208Z,44.39
2023-03-21T14:46:37.109Z,43.75
2023-03-21T14:49:28.260Z,43.22
2023-03-21T14:51:59.383Z,42.92
2023-03-21T14:54:27.667Z,42.44
2023-03-21T14:57:00.884Z,41.72
2023-03-21T14:59:33.656Z,41.93
2023-03-21T15:02:05.639Z,42.22
2023-03-21T15:04:33.497Z,42.19
2023-03-21T15:07:05.212Z,42.50
2023-03-21T15:09:35.231Z,42.62
2023-03-21T15:12:08.591Z,41.90
2023-03-21T15:14:38.012Z,42.57
2023-03-21T15:17:07.683Z,42.74
2023-03-21T15:19:40.079Z,42.51
2023-03-21T15:22:10.855Z,41.78
2023-03-21T15:24:44.532Z,42.80
2023-03-21T15:27:17.823Z,43.15
2023-03-21T15:29:46.225Z,42.83
2023-03-21T15:32:17.068Z,42.71
2023-03-21T15:34:45.633Z,43.31
2023-03-21T15:37:19.139Z,43.25
2023-03-21T15:39:49.326Z,42.30
2023-03-21T15:42:27.607Z,42.83
2023-03-21T15:44:57.610Z,42.88
2023-03-21T15:48:03.202Z,42.85
2023-03-21T15:50:38.199Z,42.56
2023-03-21T15:53:13.273Z,41.69
2023-03-21T15:55:48.314Z,41.94
2023-03-21T15:58:34.656Z,42.04
2023-03-21T16:01:06.662Z,42.30
2023-03-21T16:03:40.734Z,41.90
2023-03-21T16:06:11.501Z,42.69
2023-03-21T16:08:51.451Z,42.34
2023-03-21T16:11:28.530Z,42.03
2023-03-21T16:13:56.969Z,42.93
2023-03-21T16:16:27.551Z,42.39
2023-03-21T16:18:56.853Z,42.28
2023-03-21T16:21:28.703Z,42.63
2023-03-21T16:23:58.335Z,42.42
2023-03-21T16:26:32.243Z,42.99
2023-03-21T16:29:00.497Z,42.83
2023-03-21T16:31:31.135Z,43.11
2023-03-21T16:33:59.363Z,42.89
2023-03-21T16:36:29.952Z,42.65
2023-03-21T16:38:58.205Z,42.70
2023-03-21T16:41:27.821Z,43.40
2023-03-21T16:43:55.654Z,43.48
2023-03-21T16:46:25.991Z,43.47
2023-03-21T16:48:57.054Z,44.02
2023-03-21T16:51:30.505Z,44.14
2023-03-21T16:53:58.286Z,43.63
2023-03-21T16:56:55.692Z,43.89
2023-03-21T16:59:23.709Z,43.99
2023-03-21T17:01:51.868Z,44.62
2023-03-21T17:04:19.617Z,44.64
2023-03-21T17:06:50.173Z,44.40
2023-03-21T17:09:21.220Z,44.40
2023-03-21T17:11:49.780Z,43.91
2023-03-21T17:14:18.853Z,44.41
2023-03-21T17:16:46.767Z,44.58
2023-03-21T17:19:17.260Z,44.57
2023-03-21T17:21:45.778Z,44.71
2023-03-21T17:24:14.048Z,45.21
2023-03-21T17:26:41.917Z,44.93
2023-03-21T17:29:13.093Z,45.03
2023-03-21T17:31:41.165Z,45.52
2023-03-21T17:34:09.957Z,46.07
2023-03-21T17:36:39.652Z,45.87
2023-03-21T17:39:09.146Z,46.58
2023-03-21T17:41:36.958Z,46.39
2023-03-21T17:44:04.827Z,46.55
2023-03-21T17:46:37.211Z,46.11
2023-03-21T17:49:05.847Z,46.40
2023-03-21T17:51:33.756Z,47.17
2023-03-21T17:54:01.710Z,47.38
2023-03-21T17:56:31.416Z,47.67
2023-03-21T17:59:07.494Z,48.26
2023-03-21T18:01:35.646Z,48.22
2023-03-21T18:04:05.282Z,48.68
2023-03-21T18:06:34.447Z,48.93
2023-03-21T18:09:07.167Z,49.32
2023-03-21T18:11:35.020Z,49.98
2023-03-21T18:14:15.473Z,50.64
2023-03-21T18:16:45.057Z,52.33
2023-03-21T18:19:14.025Z,53.63
2023-03-21T18:21:45.276Z,53.91
2023-03-21T18:24:14.124Z,56.43
2023-03-21T18:26:42.959Z,57.92
2023-03-21T18:32:06.952Z,60.03
2023-03-21T18:34:37.487Z,60.57
2023-03-21T18:37:08.108Z,61.29
2023-03-21T18:39:39.347Z,62.42
2023-03-21T18:42:16.635Z,62.42
2023-03-21T18:44:45.682Z,63.08
2023-03-21T18:47:14.392Z,63.64
2023-03-21T18:50:13.109Z,64.05
2023-03-21T18:52:31.289Z,64.78
2023-03-21T18:54:59.290Z,65.78
2023-03-21T18:57:36.301Z,65.92
2023-03-21T19:00:12.496Z,67.12
2023-03-21T19:02:47.749Z,67.63
2023-03-21T19:05:18.927Z,68.80
2023-03-21T19:07:48.134Z,68.59
2023-03-21T19:10:19.723Z,68.86
2023-03-21T19:12:52.706Z,69.73
2023-03-21T19:15:24.334Z,69.80
2023-03-21T19:18:34.012Z,70.55
2023-03-21T19:20:47.089Z,70.53
2023-03-21T19:23:16.272Z,70.67
2023-03-21T19:25:44.900Z,70.15
2023-03-21T19:28:18.357Z,70.94
2023-03-21T19:30:50.209Z,71.34
2023-03-21T19:33:20.150Z,70.79
2023-03-21T19:35:49.159Z,71.38
2023-03-21T19:38:17.049Z,71.21
2023-03-21T19:40:46.284Z,71.63
2023-03-21T19:43:32.222Z,71.48
2023-03-21T19:46:03.141Z,71.08
2023-03-21T19:48:31.197Z,70.89
2023-03-21T19:53:50.556Z,72.23
2023-03-21T19:56:23.005Z,71.75
2023-03-21T19:58:54.942Z,71.97
2023-03-21T20:01:24.936Z,71.92
2023-03-21T20:03:52.844Z,72.13
2023-03-21T20:06:22.641Z,72.24
2023-03-21T20:11:39.949Z,72.15
2023-03-21T20:14:07.757Z,71.79
2023-03-21T20:16:36.918Z,72.03
2023-03-21T20:19:06.233Z,72.47
2023-03-21T20:21:45.324Z,72.64
2023-03-21T20:24:16.569Z,72.78
2023-03-21T20:26:45.831Z,73.08
2023-03-21T20:30:07.481Z,72.51
2023-03-21T20:32:01.618Z,72.77
2023-03-21T20:34:30.533Z,72.97
2023-03-21T20:37:00.281Z,73.38
2023-03-21T20:39:30.080Z,73.37
2023-03-21T20:41:59.409Z,73.15
2023-03-21T20:44:51.870Z,73.56
2023-03-21T20:47:15.679Z,73.53
2023-03-21T20:49:43.435Z,73.21
2023-03-21T20:54:59.055Z,73.55
2023-03-21T20:57:30.281Z,73.79
2023-03-21T20:59:58.022Z,73.61
2023-03-21T21:02:25.775Z,73.61
2023-03-21T21:05:23.760Z,73.78
2023-03-21T21:07:42.786Z,73.72
2023-03-21T21:10:12.012Z,73.35
2023-03-21T21:12:42.333Z,73.86
2023-03-21T21:15:11.271Z,74.11
2023-03-21T21:18:05.445Z,74.19
2023-03-21T21:20:27.725Z,73.87
2023-03-21T21:23:00.679Z,73.14
2023-03-21T21:25:29.405Z,74.05
2023-03-21T21:27:57.060Z,74.54
2023-03-21T21:30:24.924Z,74.33
2023-03-21T21:32:52.740Z,74.23
2023-03-21T21:35:22.436Z,74.26
2023-03-21T21:37:51.678Z,74.06
2023-03-21T21:40:23.050Z,74.26
2023-03-21T21:42:50.946Z,74.39
2023-03-21T21:45:19.056Z,74.23
2023-03-21T21:47:46.812Z,74.44
2023-03-21T21:50:14.632Z,74.60
2023-03-21T21:52:44.106Z,74.46
2023-03-21T21:55:13.307Z,74.72
2023-03-21T21:57:41.125Z,74.70
2023-03-21T22:00:13.782Z,74.82
2023-03-21T22:02:42.690Z,74.59
2023-03-21T22:05:10.625Z,74.56
2023-03-21T22:07:39.325Z,74.88
2023-03-21T22:10:08.111Z,74.68
2023-03-21T22:12:36.228Z,74.65
2023-03-21T22:15:07.033Z,74.92
2023-03-21T22:17:35.658Z,74.78
2023-03-21T22:20:06.889Z,75.16
2023-03-21T22:22:35.122Z,75.00
2023-03-21T22:25:05.122Z,74.78
2023-03-21T22:27:33.142Z,75.17
2023-03-21T22:30:07.568Z,75.18
2023-03-21T22:32:37.550Z,75.46
2023-03-21T22:35:07.212Z,74.97
2023-03-21T22:37:38.529Z,74.88
2023-03-21T22:40:09.972Z,75.08
2023-03-21T22:42:38.248Z,74.94
2023-03-21T22:45:07.726Z,75.38
2023-03-21T22:47:35.914Z,75.37
2023-03-21T22:50:05.531Z,75.50
2023-03-21T22:52:33.394Z,75.27
2023-03-21T22:55:01.141Z,75.44
2023-03-21T22:57:30.845Z,75.75
2023-03-21T22:59:58.657Z,75.77
2023-03-21T23:02:27.264Z,75.33
2023-03-21T23:04:55.003Z,75.49
2023-03-21T23:07:23.146Z,75.54
2023-03-21T23:09:50.962Z,75.31
2023-03-21T23:12:18.659Z,75.50
2023-03-21T23:14:46.484Z,74.99
2023-03-21T23:17:14.186Z,75.42
2023-03-21T23:19:42.307Z,75.12
2023-03-21T23:22:10.082Z,75.23
2023-03-21T23:24:38.040Z,75.49
2023-03-21T23:27:06.273Z,75.96
2023-03-21T23:29:34.053Z,75.31
2023-03-21T23:32:02.120Z,75.85
2023-03-21T23:34:33.721Z,75.93
2023-03-21T23:37:01.465Z,75.85
2023-03-21T23:39:29.226Z,75.94
2023-03-21T23:41:58.729Z,76.00
2023-03-21T23:44:27.583Z,75.98
2023-03-21T23:46:55.577Z,75.80
2023-03-21T23:49:24.675Z,75.96
2023-03-21T23:51:52.456Z,76.16
2023-03-21T23:54:20.166Z,75.57
2023-03-21T23:56:47.925Z,75.82
2023-03-21T23:59:15.739Z,75.47
